sensor_id;sensor_type;location;lat;lon;timestamp;P1;durP1;ratioP1;P2;durP2;ratioP2
59440;SDS011;45245;51.538;11.870;2022-08-01T00:00:35;5.32;;;4.32;;
59440;SDS011;45245;51.538;11.870;2022-08-01T00:03:01;4.63;;;4.28;;
59440;SDS011;45245;51.538;11.870;2022-08-01T00:05:28;4.75;;;4.35;;
59440;SDS011;45245;51.538;11.870;2022-08-01T00:07:54;5.30;;;4.80;;
59440;SDS011;45245;51.538;11.870;2022-08-01T00:10:20;4.10;;;3.80;;
59440;SDS011;45245;51.538;11.870;2022-08-01T00:12:47;4.30;;;3.88;;
59440;SDS011;45245;51.538;11.870;2022-08-01T00:15:13;3.40;;;3.20;;
59440;SDS011;45245;51.538;11.870;2022-08-01T00:17:40;4.53;;;4.00;;
59440;SDS011;45245;51.538;11.870;2022-08-01T00:20:07;4.25;;;3.95;;
59440;SDS011;45245;51.538;11.870;2022-08-01T00:22:34;4.35;;;4.05;;
59440;SDS011;45245;51.538;11.870;2022-08-01T00:25:00;3.97;;;3.60;;
59440;SDS011;45245;51.538;11.870;2022-08-01T00:27:26;4.13;;;3.83;;
59440;SDS011;45245;51.538;11.870;2022-08-01T00:29:51;3.50;;;3.20;;
59440;SDS011;45245;51.538;11.870;2022-08-01T00:32:17;4.75;;;4.35;;
59440;SDS011;45245;51.538;11.870;2022-08-01T00:34:43;4.03;;;3.72;;
59440;SDS011;45245;51.538;11.870;2022-08-01T00:37:08;4.50;;;4.10;;
59440;SDS011;45245;51.538;11.870;2022-08-01T00:39:34;4.93;;;3.53;;
59440;SDS011;45245;51.538;11.870;2022-08-01T00:42:00;4.43;;;3.42;;
59440;SDS011;45245;51.538;11.870;2022-08-01T00:44:30;3.85;;;3.47;;
59440;SDS011;45245;51.538;11.870;2022-08-01T00:46:55;4.03;;;3.72;;
59440;SDS011;45245;51.538;11.870;2022-08-01T00:49:21;4.13;;;3.83;;
59440;SDS011;45245;51.538;11.870;2022-08-01T00:51:46;3.90;;;3.60;;
59440;SDS011;45245;51.538;11.870;2022-08-01T00:54:12;4.10;;;3.80;;
59440;SDS011;45245;51.538;11.870;2022-08-01T00:56:37;3.92;;;3.63;;
59440;SDS011;45245;51.538;11.870;2022-08-01T00:59:04;3.88;;;3.58;;
59440;SDS011;45245;51.538;11.870;2022-08-01T01:01:30;4.43;;;4.03;;
59440;SDS011;45245;51.538;11.870;2022-08-01T01:03:57;3.90;;;3.60;;
59440;SDS011;45245;51.538;11.870;2022-08-01T01:06:26;4.13;;;3.83;;
59440;SDS011;45245;51.538;11.870;2022-08-01T01:09:16;4.13;;;3.80;;
59440;SDS011;45245;51.538;11.870;2022-08-01T01:14:37;4.28;;;3.88;;
59440;SDS011;45245;51.538;11.870;2022-08-01T01:17:06;3.90;;;3.58;;
59440;SDS011;45245;51.538;11.870;2022-08-01T01:19:32;4.50;;;4.00;;
59440;SDS011;45245;51.538;11.870;2022-08-01T01:25:04;5.00;;;4.60;;
59440;SDS011;45245;51.538;11.870;2022-08-01T01:27:49;4.80;;;4.40;;
59440;SDS011;45245;51.538;11.870;2022-08-01T01:30:37;6.05;;;4.47;;
59440;SDS011;45245;51.538;11.870;2022-08-01T01:33:06;3.83;;;3.58;;
59440;SDS011;45245;51.538;11.870;2022-08-01T01:35:35;9.20;;;4.60;;
59440;SDS011;45245;51.538;11.870;2022-08-01T01:38:10;3.97;;;3.67;;
59440;SDS011;45245;51.538;11.870;2022-08-01T01:41:02;4.78;;;4.38;;
59440;SDS011;45245;51.538;11.870;2022-08-01T01:43:29;4.47;;;4.07;;
59440;SDS011;45245;51.538;11.870;2022-08-01T01:45:54;3.80;;;3.60;;
59440;SDS011;45245;51.538;11.870;2022-08-01T01:48:21;4.25;;;3.95;;
59440;SDS011;45245;51.538;11.870;2022-08-01T01:50:51;4.05;;;3.72;;
59440;SDS011;45245;51.538;11.870;2022-08-01T01:53:20;3.65;;;3.35;;
59440;SDS011;45245;51.538;11.870;2022-08-01T01:55:47;4.30;;;4.00;;
59440;SDS011;45245;51.538;11.870;2022-08-01T01:58:16;4.20;;;3.83;;
59440;SDS011;45245;51.538;11.870;2022-08-01T02:00:42;4.00;;;3.70;;
59440;SDS011;45245;51.538;11.870;2022-08-01T02:03:10;3.90;;;3.70;;
59440;SDS011;45245;51.538;11.870;2022-08-01T02:05:36;4.07;;;3.67;;
59440;SDS011;45245;51.538;11.870;2022-08-01T02:08:03;3.42;;;3.22;;
59440;SDS011;45245;51.538;11.870;2022-08-01T02:10:30;4.95;;;4.07;;
59440;SDS011;45245;51.538;11.870;2022-08-01T02:12:57;4.07;;;3.78;;
59440;SDS011;45245;51.538;11.870;2022-08-01T02:15:23;3.67;;;3.38;;
59440;SDS011;45245;51.538;11.870;2022-08-01T02:17:49;3.92;;;3.58;;
59440;SDS011;45245;51.538;11.870;2022-08-01T02:20:15;3.78;;;3.47;;
59440;SDS011;45245;51.538;11.870;2022-08-01T02:22:46;3.85;;;3.55;;
59440;SDS011;45245;51.538;11.870;2022-08-01T02:25:31;3.65;;;3.35;;
59440;SDS011;45245;51.538;11.870;2022-08-01T02:28:02;3.60;;;3.30;;
59440;SDS011;45245;51.538;11.870;2022-08-01T02:30:31;3.85;;;3.50;;
59440;SDS011;45245;51.538;11.870;2022-08-01T02:33:04;3.55;;;3.33;;
59440;SDS011;45245;51.538;11.870;2022-08-01T02:35:33;3.65;;;3.30;;
59440;SDS011;45245;51.538;11.870;2022-08-01T02:38:04;3.80;;;3.50;;
59440;SDS011;45245;51.538;11.870;2022-08-01T02:40:32;3.63;;;3.33;;
59440;SDS011;45245;51.538;11.870;2022-08-01T02:42:59;3.45;;;3.20;;
59440;SDS011;45245;51.538;11.870;2022-08-01T02:45:25;3.13;;;2.92;;
59440;SDS011;45245;51.538;11.870;2022-08-01T02:47:56;3.92;;;3.65;;
59440;SDS011;45245;51.538;11.870;2022-08-01T02:50:24;3.60;;;3.30;;
59440;SDS011;45245;51.538;11.870;2022-08-01T02:52:51;3.67;;;3.38;;
59440;SDS011;45245;51.538;11.870;2022-08-01T02:55:20;3.97;;;3.58;;
59440;SDS011;45245;51.538;11.870;2022-08-01T02:57:47;3.40;;;3.20;;
59440;SDS011;45245;51.538;11.870;2022-08-01T03:00:15;3.25;;;3.05;;
59440;SDS011;45245;51.538;11.870;2022-08-01T03:02:41;4.15;;;3.78;;
59440;SDS011;45245;51.538;11.870;2022-08-01T03:05:09;4.13;;;3.83;;
59440;SDS011;45245;51.538;11.870;2022-08-01T03:07:35;3.80;;;3.42;;
59440;SDS011;45245;51.538;11.870;2022-08-01T03:10:01;3.95;;;3.65;;
59440;SDS011;45245;51.538;11.870;2022-08-01T03:12:27;3.63;;;3.42;;
59440;SDS011;45245;51.538;11.870;2022-08-01T03:14:55;3.83;;;3.53;;
59440;SDS011;45245;51.538;11.870;2022-08-01T03:17:22;3.83;;;3.53;;
59440;SDS011;45245;51.538;11.870;2022-08-01T03:19:50;3.88;;;3.58;;
59440;SDS011;45245;51.538;11.870;2022-08-01T03:22:17;3.35;;;3.15;;
59440;SDS011;45245;51.538;11.870;2022-08-01T03:24:44;3.67;;;3.38;;
59440;SDS011;45245;51.538;11.870;2022-08-01T03:27:14;3.85;;;3.42;;
59440;SDS011;45245;51.538;11.870;2022-08-01T03:29:41;3.88;;;3.33;;
59440;SDS011;45245;51.538;11.870;2022-08-01T03:32:06;4.25;;;3.20;;
59440;SDS011;45245;51.538;11.870;2022-08-01T03:34:33;3.83;;;3.38;;
59440;SDS011;45245;51.538;11.870;2022-08-01T03:39:29;3.83;;;3.42;;
59440;SDS011;45245;51.538;11.870;2022-08-01T03:41:58;5.25;;;3.05;;
59440;SDS011;45245;51.538;11.870;2022-08-01T03:44:26;3.42;;;3.13;;
59440;SDS011;45245;51.538;11.870;2022-08-01T03:46:56;3.53;;;3.30;;
59440;SDS011;45245;51.538;11.870;2022-08-01T03:49:26;3.45;;;3.25;;
59440;SDS011;45245;51.538;11.870;2022-08-01T03:51:55;3.20;;;3.00;;
59440;SDS011;45245;51.538;11.870;2022-08-01T03:54:23;3.08;;;2.85;;
59440;SDS011;45245;51.538;11.870;2022-08-01T03:56:50;2.72;;;2.53;;
59440;SDS011;45245;51.538;11.870;2022-08-01T03:59:16;3.03;;;2.83;;
59440;SDS011;45245;51.538;11.870;2022-08-01T04:01:42;4.13;;;2.80;;
59440;SDS011;45245;51.538;11.870;2022-08-01T04:04:08;2.95;;;2.75;;
59440;SDS011;45245;51.538;11.870;2022-08-01T04:06:37;3.13;;;2.70;;
59440;SDS011;45245;51.538;11.870;2022-08-01T04:09:02;3.20;;;3.00;;
59440;SDS011;45245;51.538;11.870;2022-08-01T04:11:28;2.83;;;2.63;;
59440;SDS011;45245;51.538;11.870;2022-08-01T04:13:54;3.45;;;3.20;;
59440;SDS011;45245;51.538;11.870;2022-08-01T04:16:19;2.75;;;2.58;;
59440;SDS011;45245;51.538;11.870;2022-08-01T04:18:45;3.00;;;2.80;;
59440;SDS011;45245;51.538;11.870;2022-08-01T04:21:11;2.90;;;2.70;;
59440;SDS011;45245;51.538;11.870;2022-08-01T04:23:37;3.28;;;2.90;;
59440;SDS011;45245;51.538;11.870;2022-08-01T04:26:03;4.72;;;2.70;;
59440;SDS011;45245;51.538;11.870;2022-08-01T04:28:30;2.92;;;2.50;;
59440;SDS011;45245;51.538;11.870;2022-08-01T04:30:56;5.22;;;3.08;;
59440;SDS011;45245;51.538;11.870;2022-08-01T04:33:24;2.95;;;2.75;;
59440;SDS011;45245;51.538;11.870;2022-08-01T04:35:50;3.55;;;2.65;;
59440;SDS011;45245;51.538;11.870;2022-08-01T04:38:17;2.65;;;2.45;;
59440;SDS011;45245;51.538;11.870;2022-08-01T04:40:45;3.10;;;2.57;;
59440;SDS011;45245;51.538;11.870;2022-08-01T04:43:11;2.75;;;2.53;;
59440;SDS011;45245;51.538;11.870;2022-08-01T04:45:37;2.75;;;2.55;;
59440;SDS011;45245;51.538;11.870;2022-08-01T04:48:04;2.67;;;2.47;;
59440;SDS011;45245;51.538;11.870;2022-08-01T04:50:31;2.65;;;2.45;;
59440;SDS011;45245;51.538;11.870;2022-08-01T04:52:57;2.63;;;2.42;;
59440;SDS011;45245;51.538;11.870;2022-08-01T04:55:22;2.90;;;2.15;;
59440;SDS011;45245;51.538;11.870;2022-08-01T04:57:47;2.28;;;2.17;;
59440;SDS011;45245;51.538;11.870;2022-08-01T05:00:13;2.20;;;2.05;;
59440;SDS011;45245;51.538;11.870;2022-08-01T05:02:41;2.70;;;2.33;;
59440;SDS011;45245;51.538;11.870;2022-08-01T05:05:06;2.47;;;2.28;;
59440;SDS011;45245;51.538;11.870;2022-08-01T05:07:32;2.47;;;2.17;;
59440;SDS011;45245;51.538;11.870;2022-08-01T05:09:58;2.67;;;2.47;;
59440;SDS011;45245;51.538;11.870;2022-08-01T05:12:23;2.00;;;1.90;;
59440;SDS011;45245;51.538;11.870;2022-08-01T05:14:49;2.50;;;2.30;;
59440;SDS011;45245;51.538;11.870;2022-08-01T05:17:14;2.75;;;2.00;;
59440;SDS011;45245;51.538;11.870;2022-08-01T05:19:39;2.42;;;2.22;;
59440;SDS011;45245;51.538;11.870;2022-08-01T05:22:07;2.42;;;2.22;;
59440;SDS011;45245;51.538;11.870;2022-08-01T05:24:34;2.05;;;1.88;;
59440;SDS011;45245;51.538;11.870;2022-08-01T05:27:00;2.50;;;2.20;;
59440;SDS011;45245;51.538;11.870;2022-08-01T05:29:25;2.50;;;2.30;;
59440;SDS011;45245;51.538;11.870;2022-08-01T05:31:51;2.45;;;2.25;;
59440;SDS011;45245;51.538;11.870;2022-08-01T05:34:17;2.80;;;2.20;;
59440;SDS011;45245;51.538;11.870;2022-08-01T05:36:42;2.30;;;2.10;;
59440;SDS011;45245;51.538;11.870;2022-08-01T05:39:08;2.20;;;2.10;;
59440;SDS011;45245;51.538;11.870;2022-08-01T05:41:35;2.42;;;2.20;;
59440;SDS011;45245;51.538;11.870;2022-08-01T05:44:01;1.98;;;1.88;;
59440;SDS011;45245;51.538;11.870;2022-08-01T05:46:28;3.08;;;2.08;;
59440;SDS011;45245;51.538;11.870;2022-08-01T05:48:55;2.15;;;2.05;;
59440;SDS011;45245;51.538;11.870;2022-08-01T05:51:21;2.95;;;2.10;;
59440;SDS011;45245;51.538;11.870;2022-08-01T05:53:46;2.10;;;2.00;;
59440;SDS011;45245;51.538;11.870;2022-08-01T05:56:12;2.83;;;2.10;;
59440;SDS011;45245;51.538;11.870;2022-08-01T05:58:37;2.33;;;2.17;;
59440;SDS011;45245;51.538;11.870;2022-08-01T06:01:03;2.17;;;1.98;;
59440;SDS011;45245;51.538;11.870;2022-08-01T06:03:28;2.30;;;2.10;;
59440;SDS011;45245;51.538;11.870;2022-08-01T06:05:56;1.90;;;1.80;;
59440;SDS011;45245;51.538;11.870;2022-08-01T06:08:22;2.40;;;2.20;;
59440;SDS011;45245;51.538;11.870;2022-08-01T06:10:47;2.85;;;1.90;;
59440;SDS011;45245;51.538;11.870;2022-08-01T06:13:12;4.05;;;2.13;;
59440;SDS011;45245;51.538;11.870;2022-08-01T06:15:38;1.83;;;1.73;;
59440;SDS011;45245;51.538;11.870;2022-08-01T06:18:03;2.13;;;1.80;;
59440;SDS011;45245;51.538;11.870;2022-08-01T06:20:29;1.73;;;1.55;;
59440;SDS011;45245;51.538;11.870;2022-08-01T06:22:55;1.70;;;1.60;;
59440;SDS011;45245;51.538;11.870;2022-08-01T06:25:20;2.08;;;1.88;;
59440;SDS011;45245;51.538;11.870;2022-08-01T06:27:46;2.00;;;1.90;;
59440;SDS011;45245;51.538;11.870;2022-08-01T06:30:11;2.55;;;2.30;;
59440;SDS011;45245;51.538;11.870;2022-08-01T06:32:36;2.80;;;1.70;;
59440;SDS011;45245;51.538;11.870;2022-08-01T06:35:02;2.10;;;1.90;;
59440;SDS011;45245;51.538;11.870;2022-08-01T06:37:28;2.17;;;1.98;;
59440;SDS011;45245;51.538;11.870;2022-08-01T06:40:00;1.83;;;1.73;;
59440;SDS011;45245;51.538;11.870;2022-08-01T06:42:28;1.50;;;1.40;;
59440;SDS011;45245;51.538;11.870;2022-08-01T06:44:56;2.15;;;1.25;;
59440;SDS011;45245;51.538;11.870;2022-08-01T06:47:22;2.38;;;1.30;;
59440;SDS011;45245;51.538;11.870;2022-08-01T06:49:47;3.55;;;1.65;;
59440;SDS011;45245;51.538;11.870;2022-08-01T06:52:12;1.23;;;1.13;;
59440;SDS011;45245;51.538;11.870;2022-08-01T06:54:38;1.40;;;1.20;;
59440;SDS011;45245;51.538;11.870;2022-08-01T06:57:06;1.50;;;1.27;;
59440;SDS011;45245;51.538;11.870;2022-08-01T06:59:32;0.90;;;0.90;;
59440;SDS011;45245;51.538;11.870;2022-08-01T07:01:57;2.25;;;1.30;;
59440;SDS011;45245;51.538;11.870;2022-08-01T07:04:22;2.53;;;1.02;;
59440;SDS011;45245;51.538;11.870;2022-08-01T07:06:48;0.95;;;0.95;;
59440;SDS011;45245;51.538;11.870;2022-08-01T07:09:13;1.20;;;1.10;;
59440;SDS011;45245;51.538;11.870;2022-08-01T07:11:38;0.80;;;0.80;;
59440;SDS011;45245;51.538;11.870;2022-08-01T07:14:04;2.55;;;1.20;;
59440;SDS011;45245;51.538;11.870;2022-08-01T07:16:29;3.40;;;1.10;;
59440;SDS011;45245;51.538;11.870;2022-08-01T07:18:54;1.30;;;1.20;;
59440;SDS011;45245;51.538;11.870;2022-08-01T07:21:20;1.30;;;1.20;;
59440;SDS011;45245;51.538;11.870;2022-08-01T07:23:45;1.52;;;1.30;;
59440;SDS011;45245;51.538;11.870;2022-08-01T07:26:10;1.30;;;1.20;;
59440;SDS011;45245;51.538;11.870;2022-08-01T07:28:36;1.67;;;1.58;;
59440;SDS011;45245;51.538;11.870;2022-08-01T07:31:01;2.58;;;1.50;;
59440;SDS011;45245;51.538;11.870;2022-08-01T07:33:26;1.83;;;1.25;;
59440;SDS011;45245;51.538;11.870;2022-08-01T07:35:52;1.45;;;1.35;;
59440;SDS011;45245;51.538;11.870;2022-08-01T07:38:17;1.58;;;1.48;;
59440;SDS011;45245;51.538;11.870;2022-08-01T07:40:43;1.25;;;1.15;;
59440;SDS011;45245;51.538;11.870;2022-08-01T07:43:09;1.27;;;1.17;;
59440;SDS011;45245;51.538;11.870;2022-08-01T07:45:34;2.28;;;1.15;;
59440;SDS011;45245;51.538;11.870;2022-08-01T07:48:04;2.08;;;1.60;;
59440;SDS011;45245;51.538;11.870;2022-08-01T07:50:30;1.08;;;0.98;;
59440;SDS011;45245;51.538;11.870;2022-08-01T07:52:55;1.30;;;1.20;;
59440;SDS011;45245;51.538;11.870;2022-08-01T07:55:20;2.03;;;1.20;;
59440;SDS011;45245;51.538;11.870;2022-08-01T07:57:46;0.80;;;0.80;;
59440;SDS011;45245;51.538;11.870;2022-08-01T08:00:11;0.77;;;0.77;;
59440;SDS011;45245;51.538;11.870;2022-08-01T08:02:38;0.88;;;0.88;;
59440;SDS011;45245;51.538;11.870;2022-08-01T08:05:03;1.77;;;0.77;;
59440;SDS011;45245;51.538;11.870;2022-08-01T08:07:29;1.00;;;0.80;;
59440;SDS011;45245;51.538;11.870;2022-08-01T08:09:55;1.48;;;0.73;;
59440;SDS011;45245;51.538;11.870;2022-08-01T08:12:20;0.82;;;0.50;;
59440;SDS011;45245;51.538;11.870;2022-08-01T08:14:46;0.63;;;0.52;;
59440;SDS011;45245;51.538;11.870;2022-08-01T08:17:11;0.93;;;0.77;;
59440;SDS011;45245;51.538;11.870;2022-08-01T08:19:37;0.70;;;0.57;;
59440;SDS011;45245;51.538;11.870;2022-08-01T08:22:04;1.67;;;0.68;;
59440;SDS011;45245;51.538;11.870;2022-08-01T08:24:30;0.70;;;0.70;;
59440;SDS011;45245;51.538;11.870;2022-08-01T08:26:57;0.70;;;0.60;;
59440;SDS011;45245;51.538;11.870;2022-08-01T08:29:23;1.10;;;0.63;;
59440;SDS011;45245;51.538;11.870;2022-08-01T08:31:49;0.82;;;0.82;;
59440;SDS011;45245;51.538;11.870;2022-08-01T08:34:15;2.53;;;0.68;;
59440;SDS011;45245;51.538;11.870;2022-08-01T08:36:41;1.85;;;1.00;;
59440;SDS011;45245;51.538;11.870;2022-08-01T08:39:06;0.80;;;0.80;;
59440;SDS011;45245;51.538;11.870;2022-08-01T08:41:35;1.25;;;0.73;;
59440;SDS011;45245;51.538;11.870;2022-08-01T08:44:01;1.65;;;0.90;;
59440;SDS011;45245;51.538;11.870;2022-08-01T08:46:30;0.90;;;0.90;;
59440;SDS011;45245;51.538;11.870;2022-08-01T08:49:00;1.52;;;0.80;;
59440;SDS011;45245;51.538;11.870;2022-08-01T08:51:26;0.98;;;0.85;;
59440;SDS011;45245;51.538;11.870;2022-08-01T08:53:55;0.98;;;0.82;;
59440;SDS011;45245;51.538;11.870;2022-08-01T08:56:21;0.80;;;0.80;;
59440;SDS011;45245;51.538;11.870;2022-08-01T08:58:48;0.57;;;0.57;;
59440;SDS011;45245;51.538;11.870;2022-08-01T09:01:13;0.73;;;0.73;;
59440;SDS011;45245;51.538;11.870;2022-08-01T09:03:39;0.80;;;0.80;;
59440;SDS011;45245;51.538;11.870;2022-08-01T09:06:05;0.85;;;0.85;;
59440;SDS011;45245;51.538;11.870;2022-08-01T09:08:32;1.60;;;1.50;;
59440;SDS011;45245;51.538;11.870;2022-08-01T09:10:57;1.40;;;1.30;;
59440;SDS011;45245;51.538;11.870;2022-08-01T09:13:23;1.67;;;1.58;;
59440;SDS011;45245;51.538;11.870;2022-08-01T09:15:49;1.50;;;1.40;;
59440;SDS011;45245;51.538;11.870;2022-08-01T09:21:16;2.17;;;1.98;;
59440;SDS011;45245;51.538;11.870;2022-08-01T09:23:52;2.22;;;2.00;;
59440;SDS011;45245;51.538;11.870;2022-08-01T09:26:21;2.10;;;2.00;;
59440;SDS011;45245;51.538;11.870;2022-08-01T09:28:54;2.60;;;2.40;;
59440;SDS011;45245;51.538;11.870;2022-08-01T09:31:19;2.40;;;2.20;;
59440;SDS011;45245;51.538;11.870;2022-08-01T09:33:58;3.33;;;2.15;;
59440;SDS011;45245;51.538;11.870;2022-08-01T09:36:45;2.90;;;2.70;;
59440;SDS011;45245;51.538;11.870;2022-08-01T09:39:16;3.28;;;2.70;;
59440;SDS011;45245;51.538;11.870;2022-08-01T09:41:42;3.10;;;2.80;;
59440;SDS011;45245;51.538;11.870;2022-08-01T09:44:07;4.15;;;2.75;;
59440;SDS011;45245;51.538;11.870;2022-08-01T09:46:33;3.08;;;2.88;;
59440;SDS011;45245;51.538;11.870;2022-08-01T09:48:59;3.15;;;2.88;;
59440;SDS011;45245;51.538;11.870;2022-08-01T09:51:30;3.47;;;3.17;;
59440;SDS011;45245;51.538;11.870;2022-08-01T09:54:00;3.83;;;3.15;;
59440;SDS011;45245;51.538;11.870;2022-08-01T09:56:35;3.33;;;3.03;;
59440;SDS011;45245;51.538;11.870;2022-08-01T09:59:06;3.45;;;3.10;;
59440;SDS011;45245;51.538;11.870;2022-08-01T10:01:48;2.90;;;2.70;;
59440;SDS011;45245;51.538;11.870;2022-08-01T10:04:15;3.08;;;2.88;;
59440;SDS011;45245;51.538;11.870;2022-08-01T10:06:43;3.15;;;2.85;;
59440;SDS011;45245;51.538;11.870;2022-08-01T10:09:10;2.90;;;2.70;;
59440;SDS011;45245;51.538;11.870;2022-08-01T10:11:37;3.15;;;2.55;;
59440;SDS011;45245;51.538;11.870;2022-08-01T10:14:04;2.38;;;2.17;;
59440;SDS011;45245;51.538;11.870;2022-08-01T10:16:29;2.38;;;2.17;;
59440;SDS011;45245;51.538;11.870;2022-08-01T10:18:55;2.33;;;1.73;;
59440;SDS011;45245;51.538;11.870;2022-08-01T10:21:21;1.52;;;1.42;;
59440;SDS011;45245;51.538;11.870;2022-08-01T10:23:47;1.75;;;1.65;;
59440;SDS011;45245;51.538;11.870;2022-08-01T10:26:13;2.00;;;1.80;;
59440;SDS011;45245;51.538;11.870;2022-08-01T10:28:39;1.27;;;1.17;;
59440;SDS011;45245;51.538;11.870;2022-08-01T10:31:06;1.52;;;1.33;;
59440;SDS011;45245;51.538;11.870;2022-08-01T10:33:32;1.55;;;1.45;;
59440;SDS011;45245;51.538;11.870;2022-08-01T10:35:58;1.52;;;1.42;;
59440;SDS011;45245;51.538;11.870;2022-08-01T10:38:24;1.83;;;1.40;;
59440;SDS011;45245;51.538;11.870;2022-08-01T10:40:49;1.63;;;1.30;;
59440;SDS011;45245;51.538;11.870;2022-08-01T10:43:16;1.25;;;1.15;;
59440;SDS011;45245;51.538;11.870;2022-08-01T10:45:42;1.55;;;1.30;;
59440;SDS011;45245;51.538;11.870;2022-08-01T10:50:58;1.77;;;1.67;;
59440;SDS011;45245;51.538;11.870;2022-08-01T10:53:27;1.88;;;1.50;;
59440;SDS011;45245;51.538;11.870;2022-08-01T10:55:57;1.85;;;1.70;;
59440;SDS011;45245;51.538;11.870;2022-08-01T10:58:26;2.45;;;1.88;;
59440;SDS011;45245;51.538;11.870;2022-08-01T11:03:42;2.05;;;1.88;;
59440;SDS011;45245;51.538;11.870;2022-08-01T11:06:24;2.10;;;2.00;;
59440;SDS011;45245;51.538;11.870;2022-08-01T11:17:35;2.33;;;2.13;;
59440;SDS011;45245;51.538;11.870;2022-08-01T11:20:05;2.15;;;2.05;;
59440;SDS011;45245;51.538;11.870;2022-08-01T11:30:43;2.20;;;2.00;;
59440;SDS011;45245;51.538;11.870;2022-08-01T11:33:09;1.92;;;1.83;;
59440;SDS011;45245;51.538;11.870;2022-08-01T11:35:35;2.10;;;2.00;;
59440;SDS011;45245;51.538;11.870;2022-08-01T11:41:12;2.63;;;2.08;;
59440;SDS011;45245;51.538;11.870;2022-08-01T11:51:57;2.30;;;2.10;;
59440;SDS011;45245;51.538;11.870;2022-08-01T11:54:27;2.47;;;2.28;;
59440;SDS011;45245;51.538;11.870;2022-08-01T11:57:00;2.78;;;2.58;;
59440;SDS011;45245;51.538;11.870;2022-08-01T11:59:28;2.85;;;2.38;;
59440;SDS011;45245;51.538;11.870;2022-08-01T12:01:53;2.50;;;2.30;;
59440;SDS011;45245;51.538;11.870;2022-08-01T12:04:19;2.33;;;2.22;;
59440;SDS011;45245;51.538;11.870;2022-08-01T12:06:45;2.47;;;2.38;;
59440;SDS011;45245;51.538;11.870;2022-08-01T12:09:17;2.47;;;2.28;;
59440;SDS011;45245;51.538;11.870;2022-08-01T12:11:46;3.05;;;2.85;;
59440;SDS011;45245;51.538;11.870;2022-08-01T12:14:18;2.75;;;2.55;;
59440;SDS011;45245;51.538;11.870;2022-08-01T12:16:49;2.45;;;2.25;;
59440;SDS011;45245;51.538;11.870;2022-08-01T12:19:19;2.28;;;1.70;;
59440;SDS011;45245;51.538;11.870;2022-08-01T12:24:36;1.55;;;1.45;;
59440;SDS011;45245;51.538;11.870;2022-08-01T12:27:03;1.65;;;1.55;;
59440;SDS011;45245;51.538;11.870;2022-08-01T12:29:36;1.58;;;1.33;;
59440;SDS011;45245;51.538;11.870;2022-08-01T12:32:02;3.10;;;1.85;;
59440;SDS011;45245;51.538;11.870;2022-08-01T12:34:27;1.58;;;1.48;;
59440;SDS011;45245;51.538;11.870;2022-08-01T12:36:57;1.50;;;1.40;;
59440;SDS011;45245;51.538;11.870;2022-08-01T12:39:31;1.73;;;1.63;;
59440;SDS011;45245;51.538;11.870;2022-08-01T12:41:57;1.90;;;1.73;;
59440;SDS011;45245;51.538;11.870;2022-08-01T12:44:22;3.42;;;1.90;;
59440;SDS011;45245;51.538;11.870;2022-08-01T12:46:48;1.80;;;1.70;;
59440;SDS011;45245;51.538;11.870;2022-08-01T12:49:13;1.90;;;1.80;;
59440;SDS011;45245;51.538;11.870;2022-08-01T12:51:39;1.80;;;1.70;;
59440;SDS011;45245;51.538;11.870;2022-08-01T12:54:04;2.20;;;2.00;;
59440;SDS011;45245;51.538;11.870;2022-08-01T12:56:33;2.53;;;2.33;;
59440;SDS011;45245;51.538;11.870;2022-08-01T12:58:58;2.60;;;2.05;;
59440;SDS011;45245;51.538;11.870;2022-08-01T13:01:27;4.55;;;1.90;;
59440;SDS011;45245;51.538;11.870;2022-08-01T13:03:59;2.10;;;2.00;;
59440;SDS011;45245;51.538;11.870;2022-08-01T13:06:27;1.77;;;1.67;;
59440;SDS011;45245;51.538;11.870;2022-08-01T13:08:54;2.83;;;2.00;;
59440;SDS011;45245;51.538;11.870;2022-08-01T13:11:19;2.00;;;1.90;;
59440;SDS011;45245;51.538;11.870;2022-08-01T13:13:49;6.60;;;2.53;;
59440;SDS011;45245;51.538;11.870;2022-08-01T13:16:16;3.30;;;1.85;;
59440;SDS011;45245;51.538;11.870;2022-08-01T13:18:50;1.83;;;1.70;;
59440;SDS011;45245;51.538;11.870;2022-08-01T13:21:17;1.95;;;1.80;;
59440;SDS011;45245;51.538;11.870;2022-08-01T13:26:37;3.17;;;2.13;;
59440;SDS011;45245;51.538;11.870;2022-08-01T13:29:06;2.15;;;2.05;;
59440;SDS011;45245;51.538;11.870;2022-08-01T13:31:34;4.47;;;2.70;;
59440;SDS011;45245;51.538;11.870;2022-08-01T13:34:00;3.15;;;2.58;;
59440;SDS011;45245;51.538;11.870;2022-08-01T13:36:25;4.15;;;2.97;;
59440;SDS011;45245;51.538;11.870;2022-08-01T13:38:53;3.63;;;3.33;;
59440;SDS011;45245;51.538;11.870;2022-08-01T13:41:37;3.60;;;3.20;;
59440;SDS011;45245;51.538;11.870;2022-08-01T13:44:03;4.22;;;3.75;;
59440;SDS011;45245;51.538;11.870;2022-08-01T13:46:28;4.28;;;3.97;;
59440;SDS011;45245;51.538;11.870;2022-08-01T13:48:53;4.55;;;4.15;;
59440;SDS011;45245;51.538;11.870;2022-08-01T13:51:19;5.00;;;4.60;;
59440;SDS011;45245;51.538;11.870;2022-08-01T13:53:44;4.68;;;4.28;;
59440;SDS011;45245;51.538;11.870;2022-08-01T13:56:09;4.53;;;4.13;;
59440;SDS011;45245;51.538;11.870;2022-08-01T13:58:35;4.68;;;4.10;;
59440;SDS011;45245;51.538;11.870;2022-08-01T14:01:01;4.97;;;4.57;;
59440;SDS011;45245;51.538;11.870;2022-08-01T14:03:26;4.30;;;4.00;;
59440;SDS011;45245;51.538;11.870;2022-08-01T14:05:52;3.75;;;3.55;;
59440;SDS011;45245;51.538;11.870;2022-08-01T14:08:17;3.90;;;3.60;;
59440;SDS011;45245;51.538;11.870;2022-08-01T14:10:43;3.03;;;2.83;;
59440;SDS011;45245;51.538;11.870;2022-08-01T14:13:08;3.30;;;3.10;;
59440;SDS011;45245;51.538;11.870;2022-08-01T14:15:33;3.00;;;2.80;;
59440;SDS011;45245;51.538;11.870;2022-08-01T14:17:59;3.30;;;3.10;;
59440;SDS011;45245;51.538;11.870;2022-08-01T14:20:25;2.63;;;2.47;;
59440;SDS011;45245;51.538;11.870;2022-08-01T14:22:50;2.70;;;2.50;;
59440;SDS011;45245;51.538;11.870;2022-08-01T14:25:15;2.72;;;2.50;;
59440;SDS011;45245;51.538;11.870;2022-08-01T14:27:43;2.33;;;2.20;;
59440;SDS011;45245;51.538;11.870;2022-08-01T14:30:09;6.22;;;2.30;;
59440;SDS011;45245;51.538;11.870;2022-08-01T14:32:35;2.08;;;1.98;;
59440;SDS011;45245;51.538;11.870;2022-08-01T14:35:01;2.30;;;2.20;;
59440;SDS011;45245;51.538;11.870;2022-08-01T14:37:26;3.40;;;2.10;;
59440;SDS011;45245;51.538;11.870;2022-08-01T14:39:53;2.20;;;2.10;;
59440;SDS011;45245;51.538;11.870;2022-08-01T14:42:18;2.03;;;1.92;;
59440;SDS011;45245;51.538;11.870;2022-08-01T14:44:44;2.85;;;2.65;;
59440;SDS011;45245;51.538;11.870;2022-08-01T14:47:09;2.47;;;2.28;;
59440;SDS011;45245;51.538;11.870;2022-08-01T14:49:34;2.97;;;2.75;;
59440;SDS011;45245;51.538;11.870;2022-08-01T14:52:00;2.42;;;2.33;;
59440;SDS011;45245;51.538;11.870;2022-08-01T14:54:25;2.72;;;2.53;;
59440;SDS011;45245;51.538;11.870;2022-08-01T14:56:50;2.70;;;2.50;;
59440;SDS011;45245;51.538;11.870;2022-08-01T14:59:18;3.08;;;2.88;;
59440;SDS011;45245;51.538;11.870;2022-08-01T15:01:43;3.35;;;2.90;;
59440;SDS011;45245;51.538;11.870;2022-08-01T15:04:08;2.78;;;2.58;;
59440;SDS011;45245;51.538;11.870;2022-08-01T15:06:34;3.15;;;2.85;;
59440;SDS011;45245;51.538;11.870;2022-08-01T15:08:59;3.42;;;3.17;;
59440;SDS011;45245;51.538;11.870;2022-08-01T15:11:24;3.00;;;2.80;;
59440;SDS011;45245;51.538;11.870;2022-08-01T15:13:50;3.30;;;3.00;;
59440;SDS011;45245;51.538;11.870;2022-08-01T15:16:35;3.10;;;2.90;;
59440;SDS011;45245;51.538;11.870;2022-08-01T15:19:00;3.10;;;2.88;;
59440;SDS011;45245;51.538;11.870;2022-08-01T15:21:26;2.78;;;2.65;;
59440;SDS011;45245;51.538;11.870;2022-08-01T15:23:51;2.78;;;2.58;;